sensor_id;sensor_type;location;lat;lon;timestamp;pressure;altitude;pressure_sealevel;temperature;humidity
21781;BME280;52576;53.614;9.894;2023-05-24T00:00:17;101758.97;;;9.32;67.90
21781;BME280;52576;53.614;9.894;2023-05-24T00:02:22;101753.72;;;9.32;67.93
21781;BME280;52576;53.614;9.894;2023-05-24T00:04:28;101746.66;;;9.34;67.96
21781;BME280;52576;53.614;9.894;2023-05-24T00:06:31;101753.59;;;9.35;68.11
21781;BME280;52576;53.614;9.894;2023-05-24T00:08:36;101749.22;;;9.35;68.16
21781;BME280;52576;53.614;9.894;2023-05-24T00:10:39;101745.56;;;9.38;68.09
21781;BME280;52576;53.614;9.894;2023-05-24T00:12:43;101747.28;;;9.39;68.23
21781;BME280;52576;53.614;9.894;2023-05-24T00:14:46;101741.13;;;9.40;68.38
21781;BME280;52576;53.614;9.894;2023-05-24T00:16:50;101739.28;;;9.42;68.38
21781;BME280;52576;53.614;9.894;2023-05-24T00:18:55;101740.97;;;9.43;68.09
21781;BME280;52576;53.614;9.894;2023-05-24T00:21:00;101736.59;;;9.43;67.99
21781;BME280;52576;53.614;9.894;2023-05-24T00:23:03;101735.63;;;9.46;68.10
21781;BME280;52576;53.614;9.894;2023-05-24T00:25:08;101735.63;;;9.46;68.02
21781;BME280;52576;53.614;9.894;2023-05-24T00:27:12;101738.16;;;9.47;68.02
21781;BME280;52576;53.614;9.894;2023-05-24T00:29:15;101738.09;;;9.49;67.91
21781;BME280;52576;53.614;9.894;2023-05-24T00:31:19;101735.47;;;9.49;67.96
21781;BME280;52576;53.614;9.894;2023-05-24T00:33:23;101725.84;;;9.49;67.98
21781;BME280;52576;53.614;9.894;2023-05-24T00:35:28;101727.56;;;9.50;68.12
21781;BME280;52576;53.614;9.894;2023-05-24T00:37:31;101730.94;;;9.52;68.14
21781;BME280;52576;53.614;9.894;2023-05-24T00:39:35;101726.56;;;9.53;68.21
21781;BME280;52576;53.614;9.894;2023-05-24T00:41:38;101715.19;;;9.54;68.34
21781;BME280;52576;53.614;9.894;2023-05-24T00:43:42;101714.25;;;9.55;68.39
21781;BME280;52576;53.614;9.894;2023-05-24T00:45:45;101714.25;;;9.55;68.34
21781;BME280;52576;53.614;9.894;2023-05-24T00:47:49;101724.72;;;9.55;68.33
21781;BME280;52576;53.614;9.894;2023-05-24T00:49:53;101714.25;;;9.55;68.43
21781;BME280;52576;53.614;9.894;2023-05-24T00:51:58;101709.03;;;9.55;68.58
21781;BME280;52576;53.614;9.894;2023-05-24T00:54:03;101708.16;;;9.55;68.59
21781;BME280;52576;53.614;9.894;2023-05-24T00:56:08;101713.41;;;9.55;68.67
21781;BME280;52576;53.614;9.894;2023-05-24T00:58:11;101717.78;;;9.54;68.66
21781;BME280;52576;53.614;9.894;2023-05-24T01:00:16;101718.63;;;9.55;68.74
21781;BME280;52576;53.614;9.894;2023-05-24T01:02:20;101723.03;;;9.54;68.88
21781;BME280;52576;53.614;9.894;2023-05-24T01:04:24;101715.09;;;9.56;68.94
21781;BME280;52576;53.614;9.894;2023-05-24T01:06:29;101710.72;;;9.56;69.00
21781;BME280;52576;53.614;9.894;2023-05-24T01:08:44;101712.41;;;9.57;68.89
21781;BME280;52576;53.614;9.894;2023-05-24T01:10:57;101715.88;;;9.58;69.08
21781;BME280;52576;53.614;9.894;2023-05-24T01:13:07;101720.19;;;9.59;68.93
21781;BME280;52576;53.614;9.894;2023-05-24T01:15:19;101710.56;;;9.59;69.02
21781;BME280;52576;53.614;9.894;2023-05-24T01:17:27;101707.97;;;9.59;69.02
21781;BME280;52576;53.614;9.894;2023-05-24T01:19:47;101719.19;;;9.61;69.12
21781;BME280;52576;53.614;9.894;2023-05-24T01:22:00;101711.34;;;9.61;69.18
21781;BME280;52576;53.614;9.894;2023-05-24T01:24:21;101707.78;;;9.62;69.25
21781;BME280;52576;53.614;9.894;2023-05-24T01:26:34;101716.59;;;9.61;69.17
21781;BME280;52576;53.614;9.894;2023-05-24T01:28:42;101708.72;;;9.61;69.23
21781;BME280;52576;53.614;9.894;2023-05-24T01:30:46;101705.34;;;9.59;69.17
21781;BME280;52576;53.614;9.894;2023-05-24T01:32:50;101707.03;;;9.60;69.16
21781;BME280;52576;53.614;9.894;2023-05-24T01:34:54;101711.41;;;9.60;69.23
21781;BME280;52576;53.614;9.894;2023-05-24T01:36:58;101698.25;;;9.61;69.30
21781;BME280;52576;53.614;9.894;2023-05-24T01:39:01;101705.16;;;9.62;69.21
21781;BME280;52576;53.614;9.894;2023-05-24T01:41:16;101700.78;;;9.63;69.32
21781;BME280;52576;53.614;9.894;2023-05-24T01:43:26;101700.78;;;9.63;69.41
21781;BME280;52576;53.614;9.894;2023-05-24T01:45:36;101706.88;;;9.63;69.42
21781;BME280;52576;53.614;9.894;2023-05-24T01:47:51;101704.25;;;9.63;69.46
21781;BME280;52576;53.614;9.894;2023-05-24T01:50:00;101699.94;;;9.62;69.35
21781;BME280;52576;53.614;9.894;2023-05-24T01:52:11;101701.63;;;9.63;69.46
21781;BME280;52576;53.614;9.894;2023-05-24T01:54:19;101702.56;;;9.62;69.57
21781;BME280;52576;53.614;9.894;2023-05-24T01:56:24;101696.41;;;9.63;69.68
21781;BME280;52576;53.614;9.894;2023-05-24T01:58:31;101697.25;;;9.64;69.74
21781;BME280;52576;53.614;9.894;2023-05-24T02:00:38;101703.31;;;9.64;69.93
21781;BME280;52576;53.614;9.894;2023-05-24T02:02:43;101701.63;;;9.63;70.05
21781;BME280;52576;53.614;9.894;2023-05-24T02:04:48;101690.25;;;9.64;70.06
21781;BME280;52576;53.614;9.894;2023-05-24T02:06:51;101689.38;;;9.64;70.18
21781;BME280;52576;53.614;9.894;2023-05-24T02:08:55;101694.56;;;9.65;70.13
21781;BME280;52576;53.614;9.894;2023-05-24T02:10:58;101698.88;;;9.66;70.42
21781;BME280;52576;53.614;9.894;2023-05-24T02:13:02;101697.94;;;9.67;70.41
21781;BME280;52576;53.614;9.894;2023-05-24T02:15:08;101689.16;;;9.68;70.52
21781;BME280;52576;53.614;9.894;2023-05-24T02:17:13;101691.72;;;9.70;70.58
21781;BME280;52576;53.614;9.894;2023-05-24T02:19:19;101692.56;;;9.70;70.55
21781;BME280;52576;53.614;9.894;2023-05-24T02:21:23;101687.41;;;9.69;70.66
21781;BME280;52576;53.614;9.894;2023-05-24T02:23:28;101684.72;;;9.70;70.78
21781;BME280;52576;53.614;9.894;2023-05-24T02:25:33;101691.66;;;9.71;70.74
21781;BME280;52576;53.614;9.894;2023-05-24T02:27:37;101691.66;;;9.71;70.82
21781;BME280;52576;53.614;9.894;2023-05-24T02:29:41;101688.19;;;9.71;70.80
21781;BME280;52576;53.614;9.894;2023-05-24T02:31:44;101683.78;;;9.71;70.87
21781;BME280;52576;53.614;9.894;2023-05-24T02:33:49;101690.78;;;9.71;70.89
21781;BME280;52576;53.614;9.894;2023-05-24T02:35:53;101692.56;;;9.70;70.90
21781;BME280;52576;53.614;9.894;2023-05-24T02:37:56;101696.94;;;9.70;71.03
21781;BME280;52576;53.614;9.894;2023-05-24T02:40:00;101703.03;;;9.70;71.00
21781;BME280;52576;53.614;9.894;2023-05-24T02:42:05;101697.81;;;9.70;71.08
21781;BME280;52576;53.614;9.894;2023-05-24T02:44:09;101704.72;;;9.71;71.14
21781;BME280;52576;53.614;9.894;2023-05-24T02:46:13;101709.97;;;9.71;71.24
21781;BME280;52576;53.614;9.894;2023-05-24T02:48:17;101703.81;;;9.72;71.26
21781;BME280;52576;53.614;9.894;2023-05-24T02:50:22;101702.03;;;9.73;71.35
21781;BME280;52576;53.614;9.894;2023-05-24T02:52:26;101709.91;;;9.73;71.44
21781;BME280;52576;53.614;9.894;2023-05-24T02:54:29;101704.72;;;9.71;71.57
21781;BME280;52576;53.614;9.894;2023-05-24T02:56:33;101703.03;;;9.70;71.62
21781;BME280;52576;53.614;9.894;2023-05-24T02:58:38;101708.28;;;9.70;71.80
21781;BME280;52576;53.614;9.894;2023-05-24T03:00:42;101707.41;;;9.70;71.93
21781;BME280;52576;53.614;9.894;2023-05-24T03:02:46;101704.88;;;9.68;72.13
21781;BME280;52576;53.614;9.894;2023-05-24T03:04:52;101700.50;;;9.69;72.27
21781;BME280;52576;53.614;9.894;2023-05-24T03:06:57;101702.19;;;9.70;72.42
21781;BME280;52576;53.614;9.894;2023-05-24T03:09:01;101709.97;;;9.71;72.51
21781;BME280;52576;53.614;9.894;2023-05-24T03:11:04;101701.19;;;9.72;72.58
21781;BME280;52576;53.614;9.894;2023-05-24T03:13:08;101704.59;;;9.74;72.82
21781;BME280;52576;53.614;9.894;2023-05-24T03:15:12;101698.44;;;9.75;72.72
21781;BME280;52576;53.614;9.894;2023-05-24T03:17:16;101689.72;;;9.75;72.86
21781;BME280;52576;53.614;9.894;2023-05-24T03:19:19;101693.13;;;9.77;72.84
21781;BME280;52576;53.614;9.894;2023-05-24T03:21:23;101691.34;;;9.77;72.92
21781;BME280;52576;53.614;9.894;2023-05-24T03:23:28;101693.13;;;9.77;72.99
21781;BME280;52576;53.614;9.894;2023-05-24T03:25:32;101691.34;;;9.77;73.05
21781;BME280;52576;53.614;9.894;2023-05-24T03:27:36;101689.59;;;9.78;73.12
21781;BME280;52576;53.614;9.894;2023-05-24T03:29:39;101690.44;;;9.78;73.11
21781;BME280;52576;53.614;9.894;2023-05-24T03:31:43;101686.03;;;9.79;73.38
21781;BME280;52576;53.614;9.894;2023-05-24T03:33:47;101684.28;;;9.79;73.26
21781;BME280;52576;53.614;9.894;2023-05-24T03:35:51;101688.59;;;9.80;73.38
21781;BME280;52576;53.614;9.894;2023-05-24T03:37:54;101686.91;;;9.79;73.47
21781;BME280;52576;53.614;9.894;2023-05-24T03:39:59;101692.13;;;9.79;73.64
21781;BME280;52576;53.614;9.894;2023-05-24T03:42:21;101686.91;;;9.79;73.84
21781;BME280;52576;53.614;9.894;2023-05-24T03:44:26;101696.44;;;9.80;73.90
21781;BME280;52576;53.614;9.894;2023-05-24T03:46:30;101697.22;;;9.82;73.97
21781;BME280;52576;53.614;9.894;2023-05-24T03:48:35;101694.53;;;9.84;74.08
21781;BME280;52576;53.614;9.894;2023-05-24T03:50:38;101691.00;;;9.85;74.15
21781;BME280;52576;53.614;9.894;2023-05-24T03:52:42;101702.31;;;9.85;74.30
21781;BME280;52576;53.614;9.894;2023-05-24T03:54:46;101694.53;;;9.84;74.47
21781;BME280;52576;53.614;9.894;2023-05-24T03:56:51;101700.69;;;9.83;74.58
21781;BME280;52576;53.614;9.894;2023-05-24T03:58:55;101708.53;;;9.83;74.88
21781;BME280;52576;53.614;9.894;2023-05-24T04:01:01;101698.91;;;9.83;75.04
21781;BME280;52576;53.614;9.894;2023-05-24T04:03:05;101698.91;;;9.83;75.14
21781;BME280;52576;53.614;9.894;2023-05-24T04:05:10;101704.09;;;9.85;75.33
21781;BME280;52576;53.614;9.894;2023-05-24T04:07:14;101716.16;;;9.87;75.39
21781;BME280;52576;53.614;9.894;2023-05-24T04:09:18;101710.91;;;9.87;75.53
21781;BME280;52576;53.614;9.894;2023-05-24T04:11:21;101706.53;;;9.88;75.67
21781;BME280;52576;53.614;9.894;2023-05-24T04:13:26;101709.06;;;9.90;75.76
21781;BME280;52576;53.614;9.894;2023-05-24T04:15:30;101716.16;;;9.87;75.84
21781;BME280;52576;53.614;9.894;2023-05-24T04:17:34;101710.91;;;9.87;76.20
21781;BME280;52576;53.614;9.894;2023-05-24T04:19:39;101715.31;;;9.87;76.47
21781;BME280;52576;53.614;9.894;2023-05-24T04:21:43;101715.41;;;9.85;76.81
21781;BME280;52576;53.614;9.894;2023-05-24T04:23:47;101712.00;;;9.83;76.99
21781;BME280;52576;53.614;9.894;2023-05-24T04:25:51;101718.16;;;9.82;77.45
21781;BME280;52576;53.614;9.894;2023-05-24T04:27:54;101718.31;;;9.79;77.59
21781;BME280;52576;53.614;9.894;2023-05-24T04:30:00;101720.16;;;9.77;77.95
21781;BME280;52576;53.614;9.894;2023-05-24T04:32:04;101720.22;;;9.76;78.39
21781;BME280;52576;53.614;9.894;2023-05-24T04:34:08;101709.81;;;9.74;78.62
21781;BME280;52576;53.614;9.894;2023-05-24T04:36:14;101715.06;;;9.74;78.77
21781;BME280;52576;53.614;9.894;2023-05-24T04:38:18;101714.13;;;9.75;79.00
21781;BME280;52576;53.614;9.894;2023-05-24T04:40:23;101709.81;;;9.74;78.97
21781;BME280;52576;53.614;9.894;2023-05-24T04:42:27;101709.97;;;9.71;79.21
21781;BME280;52576;53.614;9.894;2023-05-24T04:44:33;101721.34;;;9.70;79.54
21781;BME280;52576;53.614;9.894;2023-05-24T04:46:38;101713.50;;;9.70;79.59
21781;BME280;52576;53.614;9.894;2023-05-24T04:48:41;101718.03;;;9.67;79.67
21781;BME280;52576;53.614;9.894;2023-05-24T04:50:45;101720.81;;;9.64;79.78
21781;BME280;52576;53.614;9.894;2023-05-24T04:52:49;101714.88;;;9.60;80.18
21781;BME280;52576;53.614;9.894;2023-05-24T04:54:53;101724.50;;;9.60;80.43
21781;BME280;52576;53.614;9.894;2023-05-24T04:56:57;101727.13;;;9.60;80.59
21781;BME280;52576;53.614;9.894;2023-05-24T04:59:00;101722.88;;;9.57;80.53
21781;BME280;52576;53.614;9.894;2023-05-24T05:01:04;101729.97;;;9.55;80.78
21781;BME280;52576;53.614;9.894;2023-05-24T05:03:09;101733.50;;;9.54;81.06
21781;BME280;52576;53.614;9.894;2023-05-24T05:05:13;101731.78;;;9.53;81.17
21781;BME280;52576;53.614;9.894;2023-05-24T05:07:17;101726.56;;;9.53;81.25
21781;BME280;52576;53.614;9.894;2023-05-24T05:09:20;101736.31;;;9.49;81.31
21781;BME280;52576;53.614;9.894;2023-05-24T05:11:25;101739.00;;;9.48;81.67
21781;BME280;52576;53.614;9.894;2023-05-24T05:13:29;101734.69;;;9.47;81.81
21781;BME280;52576;53.614;9.894;2023-05-24T05:15:32;101738.16;;;9.47;82.15
21781;BME280;52576;53.614;9.894;2023-05-24T05:17:36;101740.63;;;9.50;82.28
21781;BME280;52576;53.614;9.894;2023-05-24T05:19:41;101735.34;;;9.52;82.19
21781;BME280;52576;53.614;9.894;2023-05-24T05:21:45;101749.19;;;9.54;82.52
21781;BME280;52576;53.614;9.894;2023-05-24T05:23:48;101745.66;;;9.55;82.44
21781;BME280;52576;53.614;9.894;2023-05-24T05:25:52;101742.91;;;9.58;82.47
21781;BME280;52576;53.614;9.894;2023-05-24T05:27:56;101742.75;;;9.61;82.51
21781;BME280;52576;53.614;9.894;2023-05-24T05:29:59;101739.97;;;9.64;82.62
21781;BME280;52576;53.614;9.894;2023-05-24T05:32:05;101740.69;;;9.68;82.82
21781;BME280;52576;53.614;9.894;2023-05-24T05:34:09;101750.00;;;9.73;82.90
21781;BME280;52576;53.614;9.894;2023-05-24T05:36:14;101745.56;;;9.75;82.90
21781;BME280;52576;53.614;9.894;2023-05-24T05:38:18;101749.72;;;9.79;82.95
21781;BME280;52576;53.614;9.894;2023-05-24T05:40:21;101751.28;;;9.83;82.95
21781;BME280;52576;53.614;9.894;2023-05-24T05:42:25;101748.53;;;9.86;82.79
21781;BME280;52576;53.614;9.894;2023-05-24T05:44:28;101745.72;;;9.90;82.90
21781;BME280;52576;53.614;9.894;2023-05-24T05:46:32;101751.75;;;9.92;82.95
21781;BME280;52576;53.614;9.894;2023-05-24T05:48:36;101751.66;;;9.93;82.79
21781;BME280;52576;53.614;9.894;2023-05-24T05:50:39;101761.16;;;9.96;82.84
21781;BME280;52576;53.614;9.894;2023-05-24T05:52:45;101757.59;;;9.97;82.87
21781;BME280;52576;53.614;9.894;2023-05-24T05:54:48;101761.84;;;9.99;82.86
21781;BME280;52576;53.614;9.894;2023-05-24T05:56:52;101756.53;;;10.01;82.98
21781;BME280;52576;53.614;9.894;2023-05-24T05:58:56;101767.78;;;10.03;82.96
21781;BME280;52576;53.614;9.894;2023-05-24T06:00:59;101760.72;;;10.05;82.93
21781;BME280;52576;53.614;9.894;2023-05-24T06:03:03;101763.13;;;10.09;82.93
21781;BME280;52576;53.614;9.894;2023-05-24T06:05:08;101767.50;;;10.09;82.96
21781;BME280;52576;53.614;9.894;2023-05-24T06:07:11;101772.59;;;10.12;82.85
21781;BME280;52576;53.614;9.894;2023-05-24T06:09:16;101767.34;;;10.12;82.98
21781;BME280;52576;53.614;9.894;2023-05-24T06:11:20;101773.34;;;10.14;83.22
21781;BME280;52576;53.614;9.894;2023-05-24T06:13:24;101781.06;;;10.17;83.20
21781;BME280;52576;53.614;9.894;2023-05-24T06:15:29;101773.13;;;10.18;82.97
21781;BME280;52576;53.614;9.894;2023-05-24T06:17:35;101777.41;;;10.21;83.01
21781;BME280;52576;53.614;9.894;2023-05-24T06:19:38;101780.78;;;10.23;83.24
21781;BME280;52576;53.614;9.894;2023-05-24T06:21:42;101784.03;;;10.28;83.21
21781;BME280;52576;53.614;9.894;2023-05-24T06:23:49;101787.28;;;10.33;83.18
21781;BME280;52576;53.614;9.894;2023-05-24T06:25:54;101791.38;;;10.39;83.21
21781;BME280;52576;53.614;9.894;2023-05-24T06:27:58;101790.13;;;10.46;83.18
21781;BME280;52576;53.614;9.894;2023-05-24T06:30:02;101788.91;;;10.53;83.17
21781;BME280;52576;53.614;9.894;2023-05-24T06:32:05;101792.78;;;10.63;83.08
21781;BME280;52576;53.614;9.894;2023-05-24T06:34:09;101791.34;;;10.73;82.98
21781;BME280;52576;53.614;9.894;2023-05-24T06:36:13;101795.13;;;10.85;82.88
21781;BME280;52576;53.614;9.894;2023-05-24T06:38:16;101794.47;;;10.97;82.71
21781;BME280;52576;53.614;9.894;2023-05-24T06:40:20;101795.72;;;11.07;82.34
21781;BME280;52576;53.614;9.894;2023-05-24T06:42:25;101799.44;;;11.19;82.14
21781;BME280;52576;53.614;9.894;2023-05-24T06:44:28;101804.91;;;11.32;82.02
21781;BME280;52576;53.614;9.894;2023-05-24T06:46:35;101809.47;;;11.44;81.52
21781;BME280;52576;53.614;9.894;2023-05-24T06:48:39;101813.56;;;11.49;81.07
21781;BME280;52576;53.614;9.894;2023-05-24T06:50:46;101818.66;;;11.52;80.74
21781;BME280;52576;53.614;9.894;2023-05-24T06:52:50;101818.66;;;11.52;80.37
21781;BME280;52576;53.614;9.894;2023-05-24T06:54:54;101822.19;;;11.51;80.46
21781;BME280;52576;53.614;9.894;2023-05-24T06:56:57;101824.91;;;11.50;80.11
21781;BME280;52576;53.614;9.894;2023-05-24T06:59:02;101828.47;;;11.49;80.10
21781;BME280;52576;53.614;9.894;2023-05-24T07:01:06;101832.00;;;11.48;80.05
21781;BME280;52576;53.614;9.894;2023-05-24T07:03:10;101836.50;;;11.46;79.95
21781;BME280;52576;53.614;9.894;2023-05-24T07:05:13;101841.75;;;11.46;79.87
21781;BME280;52576;53.614;9.894;2023-05-24T07:07:17;101843.72;;;11.42;79.61
21781;BME280;52576;53.614;9.894;2023-05-24T07:09:20;101836.09;;;11.38;79.83
21781;BME280;52576;53.614;9.894;2023-05-24T07:11:24;101843.19;;;11.36;80.00
21781;BME280;52576;53.614;9.894;2023-05-24T07:13:28;101839.03;;;11.32;79.58
21781;BME280;52576;53.614;9.894;2023-05-24T07:15:33;101835.63;;;11.30;79.83
21781;BME280;52576;53.614;9.894;2023-05-24T07:17:37;101841.81;;;11.29;79.74
21781;BME280;52576;53.614;9.894;2023-05-24T07:19:40;101836.63;;;11.27;79.70
21781;BME280;52576;53.614;9.894;2023-05-24T07:21:44;101843.66;;;11.27;79.57
21781;BME280;52576;53.614;9.894;2023-05-24T07:23:48;101840.25;;;11.25;79.58
21781;BME280;52576;53.614;9.894;2023-05-24T07:25:52;101846.34;;;11.25;79.68
21781;BME280;52576;53.614;9.894;2023-05-24T07:27:55;101847.22;;;11.26;80.23
21781;BME280;52576;53.614;9.894;2023-05-24T07:29:59;101843.50;;;11.30;80.12
21781;BME280;52576;53.614;9.894;2023-05-24T07:32:05;101849.38;;;11.35;80.05
21781;BME280;52576;53.614;9.894;2023-05-24T07:34:09;101846.56;;;11.38;79.71
21781;BME280;52576;53.614;9.894;2023-05-24T07:36:13;101844.72;;;11.40;79.77
21781;BME280;52576;53.614;9.894;2023-05-24T07:38:17;101842.88;;;11.42;80.04
21781;BME280;52576;53.614;9.894;2023-05-24T07:40:21;101840.81;;;11.47;79.88
21781;BME280;52576;53.614;9.894;2023-05-24T07:42:24;101847.59;;;11.51;79.79
21781;BME280;52576;53.614;9.894;2023-05-24T07:44:28;101845.75;;;11.53;79.86
21781;BME280;52576;53.614;9.894;2023-05-24T07:46:32;101844.66;;;11.57;79.86
21781;BME280;52576;53.614;9.894;2023-05-24T07:48:37;101850.50;;;11.62;79.54
21781;BME280;52576;53.614;9.894;2023-05-24T07:50:40;101847.66;;;11.67;79.31
21781;BME280;52576;53.614;9.894;2023-05-24T07:52:49;101853.56;;;11.70;79.14
21781;BME280;52576;53.614;9.894;2023-05-24T07:54:53;101855.09;;;11.74;78.88
21781;BME280;52576;53.614;9.894;2023-05-24T07:56:57;101861.91;;;11.78;78.92
21781;BME280;52576;53.614;9.894;2023-05-24T07:59:00;101853.78;;;11.83;79.19
21781;BME280;52576;53.614;9.894;2023-05-24T08:01:06;101861.25;;;11.91;78.87
21781;BME280;52576;53.614;9.894;2023-05-24T08:03:09;101860.72;;;12.00;78.87
21781;BME280;52576;53.614;9.894;2023-05-24T08:05:17;101855.66;;;12.12;78.75
21781;BME280;52576;53.614;9.894;2023-05-24T08:07:20;101850.34;;;12.28;78.40
21781;BME280;52576;53.614;9.894;2023-05-24T08:09:24;101846.03;;;12.43;78.21
21781;BME280;52576;53.614;9.894;2023-05-24T08:11:29;101862.69;;;12.57;77.90
21781;BME280;52576;53.614;9.894;2023-05-24T08:13:32;101854.94;;;12.70;77.48
21781;BME280;52576;53.614;9.894;2023-05-24T08:15:36;101852.59;;;12.80;76.92
21781;BME280;52576;53.614;9.894;2023-05-24T08:17:40;101858.53;;;12.83;76.46
21781;BME280;52576;53.614;9.894;2023-05-24T08:19:43;101853.28;;;12.83;76.24
21781;BME280;52576;53.614;9.894;2023-05-24T08:21:49;101848.19;;;12.80;75.83
21781;BME280;52576;53.614;9.894;2023-05-24T08:23:53;101854.66;;;12.75;75.45
21781;BME280;52576;53.614;9.894;2023-05-24T08:25:56;101860.28;;;12.69;75.33
21781;BME280;52576;53.614;9.894;2023-05-24T08:28:00;101866.84;;;12.62;75.06
21781;BME280;52576;53.614;9.894;2023-05-24T08:30:05;101866.59;;;12.50;75.21
21781;BME280;52576;53.614;9.894;2023-05-24T08:32:09;101863.66;;;12.41;75.30
21781;BME280;52576;53.614;9.894;2023-05-24T08:34:13;101866.72;;;12.33;75.51
21781;BME280;52576;53.614;9.894;2023-05-24T08:36:17;101869.53;;;12.30;75.69
21781;BME280;52576;53.614;9.894;2023-05-24T08:38:22;101869.53;;;12.30;76.05
21781;BME280;52576;53.614;9.894;2023-05-24T08:40:26;101867.47;;;12.35;76.07
21781;BME280;52576;53.614;9.894;2023-05-24T08:42:30;101874.88;;;12.44;75.92
21781;BME280;52576;53.614;9.894;2023-05-24T08:44:38;101873.47;;;12.53;75.89
21781;BME280;52576;53.614;9.894;2023-05-24T08:46:43;101875.50;;;12.64;75.31
21781;BME280;52576;53.614;9.894;2023-05-24T08:48:48;101879.00;;;12.78;75.08
21781;BME280;52576;53.614;9.894;2023-05-24T08:50:53;101877.53;;;12.88;75.05
21781;BME280;52576;53.614;9.894;2023-05-24T08:52:57;101884.81;;;12.99;74.68
21781;BME280;52576;53.614;9.894;2023-05-24T08:55:03;101884.91;;;13.12;74.19
21781;BME280;52576;53.614;9.894;2023-05-24T08:57:08;101884.84;;;13.28;74.01
21781;BME280;52576;53.614;9.894;2023-05-24T08:59:13;101879.63;;;13.42;73.71
21781;BME280;52576;53.614;9.894;2023-05-24T09:01:17;101886.66;;;13.55;72.93
21781;BME280;52576;53.614;9.894;2023-05-24T09:03:21;101886.00;;;13.66;73.03
21781;BME280;52576;53.614;9.894;2023-05-24T09:05:26;101889.03;;;13.74;71.90
21781;BME280;52576;53.614;9.894;2023-05-24T09:07:31;101883.34;;;13.80;70.92
21781;BME280;52576;53.614;9.894;2023-05-24T09:09:41;101893.69;;;13.83;70.51
21781;BME280;52576;53.614;9.894;2023-05-24T09:11:49;101888.53;;;13.82;70.17
21781;BME280;52576;53.614;9.894;2023-05-24T09:13:54;101888.81;;;13.77;70.22
21781;BME280;52576;53.614;9.894;2023-05-24T09:15:59;101891.84;;;13.71;70.68
21781;BME280;52576;53.614;9.894;2023-05-24T09:18:03;101889.50;;;13.67;70.77
21781;BME280;52576;53.614;9.894;2023-05-24T09:20:08;101891.47;;;13.63;70.78
21781;BME280;52576;53.614;9.894;2023-05-24T09:22:13;101895.78;;;13.64;70.90
21781;BME280;52576;53.614;9.894;2023-05-24T09:24:17;101896.34;;;13.69;70.69
21781;BME280;52576;53.614;9.894;2023-05-24T09:26:21;101899.34;;;13.77;70.47
21781;BME280;52576;53.614;9.894;2023-05-24T09:28:31;101903.00;;;13.89;70.21
21781;BME280;52576;53.614;9.894;2023-05-24T09:30:35;101900.84;;;13.96;70.23
21781;BME280;52576;53.614;9.894;2023-05-24T09:32:38;101901.50;;;13.99;69.45
21781;BME280;52576;53.614;9.894;2023-05-24T09:34:43;101896.97;;;14.01;68.90
21781;BME280;52576;53.614;9.894;2023-05-24T09:36:48;101900.47;;;14.02;68.59
21781;BME280;52576;53.614;9.894;2023-05-24T09:39:04;101902.88;;;14.05;68.57
21781;BME280;52576;53.614;9.894;2023-05-24T09:41:09;101905.22;;;14.09;69.09
21781;BME280;52576;53.614;9.894;2023-05-24T09:43:13;101906.44;;;14.18;68.85
21781;BME280;52576;53.614;9.894;2023-05-24T09:45:20;101910.06;;;14.30;68.38
21781;BME280;52576;53.614;9.894;2023-05-24T09:47:27;101911.13;;;14.41;67.85
21781;BME280;52576;53.614;9.894;2023-05-24T09:49:31;101913.91;;;14.52;67.75
21781;BME280;52576;53.614;9.894;2023-05-24T09:51:36;101916.69;;;14.64;67.12
21781;BME280;52576;53.614;9.894;2023-05-24T09:53:43;101917.03;;;14.72;66.71
21781;BME280;52576;53.614;9.894;2023-05-24T09:55:48;101906.81;;;14.80;66.55
21781;BME280;52576;53.614;9.894;2023-05-24T09:58:01;101908.28;;;14.84;65.96
21781;BME280;52576;53.614;9.894;2023-05-24T10:00:06;101910.94;;;14.84;65.74
21781;BME280;52576;53.614;9.894;2023-05-24T10:02:20;101913.78;;;14.81;65.93
21781;BME280;52576;53.614;9.894;2023-05-24T10:04:31;101911.34;;;14.78;65.40
21781;BME280;52576;53.614;9.894;2023-05-24T10:06:36;101915.13;;;14.74;65.07
21781;BME280;52576;53.614;9.894;2023-05-24T10:08:40;101921.66;;;14.68;65.06
21781;BME280;52576;53.614;9.894;2023-05-24T10:10:44;101915.00;;;14.63;65.00
21781;BME280;52576;53.614;9.894;2023-05-24T10:12:49;101919.63;;;14.59;65.33
21781;BME280;52576;53.614;9.894;2023-05-24T10:14:54;101920.88;;;14.53;65.08
21781;BME280;52576;53.614;9.894;2023-05-24T10:16:58;101923.06;;;14.47;65.46
21781;BME280;52576;53.614;9.894;2023-05-24T10:19:04;101924.22;;;14.43;65.74
21781;BME280;52576;53.614;9.894;2023-05-24T10:21:09;101924.22;;;14.43;65.29
21781;BME280;52576;53.614;9.894;2023-05-24T10:23:16;101928.44;;;14.45;65.86
21781;BME280;52576;53.614;9.894;2023-05-24T10:25:23;101931.44;;;14.53;65.63
21781;BME280;52576;53.614;9.894;2023-05-24T10:27:28;101927.44;;;14.60;65.29
21781;BME280;52576;53.614;9.894;2023-05-24T10:29:42;101923.25;;;14.71;64.83
21781;BME280;52576;53.614;9.894;2023-05-24T10:31:49;101923.28;;;14.83;64.27
21781;BME280;52576;53.614;9.894;2023-05-24T10:33:55;101926.72;;;14.98;63.67
21781;BME280;52576;53.614;9.894;2023-05-24T10:36:12;101929.03;;;15.15;63.67
21781;BME280;52576;53.614;9.894;2023-05-24T10:38:19;101928.63;;;15.34;62.61
21781;BME280;52576;53.614;9.894;2023-05-24T10:40:25;101925.59;;;15.53;61.76
21781;BME280;52576;53.614;9.894;2023-05-24T10:42:30;101926.44;;;15.66;62.29
21781;BME280;52576;53.614;9.894;2023-05-24T10:44:34;101921.78;;;15.82;61.33
21781;BME280;52576;53.614;9.894;2023-05-24T10:47:08;101926.94;;;15.97;60.68
21781;BME280;52576;53.614;9.894;2023-05-24T10:49:13;101926.28;;;16.06;59.68
21781;BME280;52576;53.614;9.894;2023-05-24T10:51:29;101929.47;;;16.11;59.56
21781;BME280;52576;53.614;9.894;2023-05-24T10:53:37;101927.31;;;16.16;59.14
21781;BME280;52576;53.614;9.894;2023-05-24T10:55:52;101927.06;;;16.32;58.91
21781;BME280;52576;53.614;9.894;2023-05-24T10:57:56;101920.53;;;16.48;58.56